sensor_id;sensor_type;location;lat;lon;timestamp;pressure;altitude;pressure_sealevel;temperature;humidity
14882;BME280;7533;51.278;12.588;2023-03-15T00:02:10;99446.97;;;22.09;60.48
14882;BME280;7533;51.278;12.588;2023-03-15T00:07:13;99453.59;;;22.05;60.67
14882;BME280;7533;51.278;12.588;2023-03-15T00:12:17;99457.66;;;22.00;60.92
14882;BME280;7533;51.278;12.588;2023-03-15T00:17:23;99459.03;;;21.94;60.84
14882;BME280;7533;51.278;12.588;2023-03-15T00:22:26;99463.72;;;21.92;61.08
14882;BME280;7533;51.278;12.588;2023-03-15T00:27:30;99471.31;;;21.87;61.19
14882;BME280;7533;51.278;12.588;2023-03-15T00:32:33;99474.41;;;21.82;61.57
14882;BME280;7533;51.278;12.588;2023-03-15T00:37:36;99484.59;;;21.79;61.57
14882;BME280;7533;51.278;12.588;2023-03-15T00:42:41;99493.75;;;21.76;61.80
14882;BME280;7533;51.278;12.588;2023-03-15T00:47:51;99495.03;;;21.72;62.13
14882;BME280;7533;51.278;12.588;2023-03-15T00:52:54;99493.56;;;21.68;62.17
14882;BME280;7533;51.278;12.588;2023-03-15T00:57:58;99497.34;;;21.65;62.39
14882;BME280;7533;51.278;12.588;2023-03-15T01:03:02;99511.22;;;21.61;62.38
14882;BME280;7533;51.278;12.588;2023-03-15T01:08:05;99510.59;;;21.57;62.51
14882;BME280;7533;51.278;12.588;2023-03-15T01:13:09;99504.59;;;21.54;62.65
14882;BME280;7533;51.278;12.588;2023-03-15T01:18:12;99514.78;;;21.50;62.96
14882;BME280;7533;51.278;12.588;2023-03-15T01:23:15;99520.53;;;21.46;63.00
14882;BME280;7533;51.278;12.588;2023-03-15T01:28:19;99511.00;;;21.42;63.00
14882;BME280;7533;51.278;12.588;2023-03-15T01:33:22;99520.19;;;21.39;63.17
14882;BME280;7533;51.278;12.588;2023-03-15T01:38:26;99514.19;;;21.35;63.26
14882;BME280;7533;51.278;12.588;2023-03-15T01:43:34;99519.78;;;21.32;63.47
14882;BME280;7533;51.278;12.588;2023-03-15T01:48:38;99520.06;;;21.29;63.50
14882;BME280;7533;51.278;12.588;2023-03-15T01:53:51;99517.56;;;21.26;63.64
14882;BME280;7533;51.278;12.588;2023-03-15T01:59:00;99530.44;;;21.23;64.03
14882;BME280;7533;51.278;12.588;2023-03-15T02:04:08;99536.91;;;21.20;63.99
14882;BME280;7533;51.278;12.588;2023-03-15T02:09:17;99542.66;;;21.16;64.23
14882;BME280;7533;51.278;12.588;2023-03-15T02:14:24;99539.38;;;21.12;64.20
14882;BME280;7533;51.278;12.588;2023-03-15T02:19:36;99540.44;;;21.09;64.35
14882;BME280;7533;51.278;12.588;2023-03-15T02:24:52;99542.53;;;21.06;64.43
14882;BME280;7533;51.278;12.588;2023-03-15T02:30:02;99545.47;;;21.03;64.48
14882;BME280;7533;51.278;12.588;2023-03-15T02:35:06;99548.41;;;21.00;64.54
14882;BME280;7533;51.278;12.588;2023-03-15T02:40:16;99562.81;;;20.99;64.45
14882;BME280;7533;51.278;12.588;2023-03-15T02:45:21;99565.78;;;20.96;64.52
14882;BME280;7533;51.278;12.588;2023-03-15T02:50:25;99574.91;;;20.93;64.60
14882;BME280;7533;51.278;12.588;2023-03-15T02:55:29;99572.47;;;20.90;64.70
14882;BME280;7533;51.278;12.588;2023-03-15T03:00:34;99582.53;;;20.88;64.56
14882;BME280;7533;51.278;12.588;2023-03-15T03:05:37;99593.38;;;20.86;64.71
14882;BME280;7533;51.278;12.588;2023-03-15T03:10:40;99598.03;;;20.84;64.62
14882;BME280;7533;51.278;12.588;2023-03-15T03:15:45;99602.78;;;20.81;64.83
14882;BME280;7533;51.278;12.588;2023-03-15T03:20:50;99603.03;;;20.78;64.65
14882;BME280;7533;51.278;12.588;2023-03-15T03:25:55;99613.91;;;20.76;65.02
14882;BME280;7533;51.278;12.588;2023-03-15T03:31:00;99628.44;;;20.74;64.92
14882;BME280;7533;51.278;12.588;2023-03-15T03:36:04;99632.22;;;20.71;65.11
14882;BME280;7533;51.278;12.588;2023-03-15T03:41:08;99639.53;;;20.69;65.10
14882;BME280;7533;51.278;12.588;2023-03-15T03:46:13;99639.66;;;20.68;65.14
14882;BME280;7533;51.278;12.588;2023-03-15T03:51:21;99653.31;;;20.65;65.15
14882;BME280;7533;51.278;12.588;2023-03-15T03:56:25;99656.13;;;20.63;65.23
14882;BME280;7533;51.278;12.588;2023-03-15T04:01:29;99666.16;;;20.61;65.28
14882;BME280;7533;51.278;12.588;2023-03-15T04:06:33;99668.97;;;20.59;65.39
14882;BME280;7533;51.278;12.588;2023-03-15T04:11:36;99672.72;;;20.57;65.45
14882;BME280;7533;51.278;12.588;2023-03-15T04:16:42;99684.47;;;20.56;65.43
14882;BME280;7533;51.278;12.588;2023-03-15T04:21:49;99693.59;;;20.53;65.45
14882;BME280;7533;51.278;12.588;2023-03-15T04:27:07;99704.34;;;20.53;65.60
14882;BME280;7533;51.278;12.588;2023-03-15T04:32:35;99707.28;;;20.50;65.56
14882;BME280;7533;51.278;12.588;2023-03-15T04:37:48;99709.25;;;20.48;65.70
14882;BME280;7533;51.278;12.588;2023-03-15T04:43:19;99710.84;;;20.51;65.89
14882;BME280;7533;51.278;12.588;2023-03-15T04:48:44;99724.50;;;20.48;65.74
14882;BME280;7533;51.278;12.588;2023-03-15T04:54:22;99729.13;;;20.46;65.75
14882;BME280;7533;51.278;12.588;2023-03-15T04:59:45;99737.28;;;20.44;65.70
14882;BME280;7533;51.278;12.588;2023-03-15T05:05:11;99740.94;;;20.43;65.60
14882;BME280;7533;51.278;12.588;2023-03-15T05:10:37;99742.00;;;20.41;65.85
14882;BME280;7533;51.278;12.588;2023-03-15T05:15:43;99742.00;;;20.41;65.58
14882;BME280;7533;51.278;12.588;2023-03-15T05:21:13;99747.50;;;20.39;65.69
14882;BME280;7533;51.278;12.588;2023-03-15T05:26:35;99751.25;;;20.37;65.63
14882;BME280;7533;51.278;12.588;2023-03-15T05:31:50;99768.38;;;20.35;65.48
14882;BME280;7533;51.278;12.588;2023-03-15T05:37:17;99778.38;;;20.33;65.43
14882;BME280;7533;51.278;12.588;2023-03-15T05:42:42;99790.09;;;20.32;65.42
14882;BME280;7533;51.278;12.588;2023-03-15T05:48:04;99796.47;;;20.31;65.48
14882;BME280;7533;51.278;12.588;2023-03-15T05:53:14;99787.50;;;20.31;65.47
14882;BME280;7533;51.278;12.588;2023-03-15T05:58:35;99800.09;;;20.30;65.43
14882;BME280;7533;51.278;12.588;2023-03-15T06:03:41;99809.13;;;20.29;65.45
14882;BME280;7533;51.278;12.588;2023-03-15T06:08:54;99823.66;;;20.27;65.39
14882;BME280;7533;51.278;12.588;2023-03-15T06:13:57;99828.19;;;20.26;65.32
14882;BME280;7533;51.278;12.588;2023-03-15T06:19:20;99832.69;;;20.26;65.29
14882;BME280;7533;51.278;12.588;2023-03-15T06:24:27;99833.63;;;20.25;65.59
14882;BME280;7533;51.278;12.588;2023-03-15T06:29:31;99835.47;;;20.24;65.39
14882;BME280;7533;51.278;12.588;2023-03-15T06:34:33;99848.16;;;20.22;65.34
14882;BME280;7533;51.278;12.588;2023-03-15T06:39:38;99873.41;;;20.20;65.34
14882;BME280;7533;51.278;12.588;2023-03-15T06:44:41;99883.41;;;20.18;65.14
14882;BME280;7533;51.278;12.588;2023-03-15T06:49:44;99896.84;;;20.18;65.46
14882;BME280;7533;51.278;12.588;2023-03-15T06:54:52;99895.13;;;20.17;65.35
14882;BME280;7533;51.278;12.588;2023-03-15T06:59:55;99902.22;;;20.18;65.25
14882;BME280;7533;51.278;12.588;2023-03-15T07:04:58;99903.31;;;20.15;65.41
14882;BME280;7533;51.278;12.588;2023-03-15T07:10:03;99914.16;;;20.14;65.52
14882;BME280;7533;51.278;12.588;2023-03-15T07:15:07;99917.69;;;20.14;65.56
14882;BME280;7533;51.278;12.588;2023-03-15T07:20:11;99918.66;;;20.13;65.52
14882;BME280;7533;51.278;12.588;2023-03-15T07:25:15;99941.97;;;20.13;65.56
14882;BME280;7533;51.278;12.588;2023-03-15T07:30:24;99946.63;;;20.11;65.31
14882;BME280;7533;51.278;12.588;2023-03-15T07:35:27;99952.09;;;20.09;65.31
14882;BME280;7533;51.278;12.588;2023-03-15T07:40:31;99953.81;;;20.10;65.26
14882;BME280;7533;51.278;12.588;2023-03-15T07:45:34;99955.72;;;20.08;65.19
14882;BME280;7533;51.278;12.588;2023-03-15T07:50:38;99954.88;;;20.07;64.58
14882;BME280;7533;51.278;12.588;2023-03-15T07:55:42;99966.19;;;18.90;51.10
14882;BME280;7533;51.278;12.588;2023-03-15T08:00:45;99982.34;;;14.22;51.54
14882;BME280;7533;51.278;12.588;2023-03-15T08:05:48;99969.38;;;15.12;52.43
14882;BME280;7533;51.278;12.588;2023-03-15T08:10:53;99972.56;;;17.70;51.74
14882;BME280;7533;51.278;12.588;2023-03-15T08:15:56;99973.75;;;18.55;51.68
14882;BME280;7533;51.278;12.588;2023-03-15T08:20:59;99979.31;;;18.95;52.81
14882;BME280;7533;51.278;12.588;2023-03-15T08:26:03;99992.66;;;19.23;53.96
14882;BME280;7533;51.278;12.588;2023-03-15T08:31:07;99990.41;;;19.44;54.89
14882;BME280;7533;51.278;12.588;2023-03-15T08:36:10;100001.81;;;19.62;56.02
14882;BME280;7533;51.278;12.588;2023-03-15T08:41:14;100004.63;;;19.73;56.99
14882;BME280;7533;51.278;12.588;2023-03-15T08:46:17;100004.88;;;19.83;58.22
14882;BME280;7533;51.278;12.588;2023-03-15T08:51:22;100006.97;;;19.92;58.76
14882;BME280;7533;51.278;12.588;2023-03-15T08:56:27;100006.56;;;19.98;59.39
14882;BME280;7533;51.278;12.588;2023-03-15T09:01:30;100012.47;;;20.03;60.21
14882;BME280;7533;51.278;12.588;2023-03-15T09:06:32;100011.28;;;20.07;61.00
14882;BME280;7533;51.278;12.588;2023-03-15T09:11:37;100013.56;;;20.14;61.27
14882;BME280;7533;51.278;12.588;2023-03-15T09:16:40;100022.28;;;20.17;61.33
14882;BME280;7533;51.278;12.588;2023-03-15T09:21:42;100026.50;;;20.21;61.44
14882;BME280;7533;51.278;12.588;2023-03-15T09:26:48;100027.22;;;20.23;61.38
14882;BME280;7533;51.278;12.588;2023-03-15T09:31:51;100028.88;;;20.26;61.46
14882;BME280;7533;51.278;12.588;2023-03-15T09:36:54;100027.78;;;20.28;61.32
14882;BME280;7533;51.278;12.588;2023-03-15T09:42:00;100034.75;;;20.31;61.31
14882;BME280;7533;51.278;12.588;2023-03-15T09:47:17;100043.50;;;20.34;61.31
14882;BME280;7533;51.278;12.588;2023-03-15T09:52:29;100036.28;;;20.35;61.02
14882;BME280;7533;51.278;12.588;2023-03-15T09:57:39;100043.50;;;20.34;61.02
14882;BME280;7533;51.278;12.588;2023-03-15T10:02:54;100046.28;;;20.33;61.11
14882;BME280;7533;51.278;12.588;2023-03-15T10:07:59;100055.31;;;20.32;61.20
14882;BME280;7533;51.278;12.588;2023-03-15T10:13:17;100047.25;;;20.32;61.08
14882;BME280;7533;51.278;12.588;2023-03-15T10:18:32;100047.03;;;20.35;61.23
14882;BME280;7533;51.278;12.588;2023-03-15T10:23:45;100051.34;;;20.38;61.30
14882;BME280;7533;51.278;12.588;2023-03-15T10:28:52;100055.53;;;20.42;61.09
14882;BME280;7533;51.278;12.588;2023-03-15T10:33:56;100057.94;;;20.46;60.92
14882;BME280;7533;51.278;12.588;2023-03-15T10:38:58;100052.25;;;20.51;60.88
14882;BME280;7533;51.278;12.588;2023-03-15T10:44:05;100053.53;;;20.58;60.77
14882;BME280;7533;51.278;12.588;2023-03-15T10:49:10;100055.06;;;20.62;60.47
14882;BME280;7533;51.278;12.588;2023-03-15T10:54:15;100056.66;;;20.65;60.23
14882;BME280;7533;51.278;12.588;2023-03-15T10:59:22;100066.47;;;20.66;60.18
14882;BME280;7533;51.278;12.588;2023-03-15T11:04:25;100061.72;;;20.69;60.13
14882;BME280;7533;51.278;12.588;2023-03-15T11:09:37;100077.56;;;20.74;60.05
14882;BME280;7533;51.278;12.588;2023-03-15T11:14:44;100062.69;;;20.81;60.08
14882;BME280;7533;51.278;12.588;2023-03-15T11:19:53;100065.06;;;20.85;59.88
14882;BME280;7533;51.278;12.588;2023-03-15T11:24:57;100053.34;;;20.86;59.67
14882;BME280;7533;51.278;12.588;2023-03-15T11:30:02;100054.31;;;20.85;59.76
14882;BME280;7533;51.278;12.588;2023-03-15T11:35:11;100059.81;;;20.84;59.74
14882;BME280;7533;51.278;12.588;2023-03-15T11:40:19;100063.34;;;20.84;59.94
14882;BME280;7533;51.278;12.588;2023-03-15T11:45:30;100067.66;;;20.87;59.91
14882;BME280;7533;51.278;12.588;2023-03-15T11:50:55;100063.78;;;20.91;60.03
14882;BME280;7533;51.278;12.588;2023-03-15T11:56:19;100062.81;;;20.92;59.94
14882;BME280;7533;51.278;12.588;2023-03-15T12:01:25;100063.75;;;21.04;59.99
14882;BME280;7533;51.278;12.588;2023-03-15T12:06:36;100059.25;;;21.17;59.92
14882;BME280;7533;51.278;12.588;2023-03-15T12:11:40;100064.63;;;21.17;59.83
14882;BME280;7533;51.278;12.588;2023-03-15T12:16:45;100068.72;;;21.23;59.99
14882;BME280;7533;51.278;12.588;2023-03-15T12:21:50;100073.00;;;21.25;60.11
14882;BME280;7533;51.278;12.588;2023-03-15T12:27:00;100075.28;;;21.19;60.02
14882;BME280;7533;51.278;12.588;2023-03-15T12:32:10;100070.75;;;21.19;59.63
14882;BME280;7533;51.278;12.588;2023-03-15T12:37:19;100077.31;;;21.28;59.68
14882;BME280;7533;51.278;12.588;2023-03-15T12:48:24;100075.56;;;21.27;58.98
14882;BME280;7533;51.278;12.588;2023-03-15T12:53:39;100076.78;;;21.23;58.86
14882;BME280;7533;51.278;12.588;2023-03-15T12:58:46;100089.19;;;21.12;57.48
14882;BME280;7533;51.278;12.588;2023-03-15T13:03:54;100085.16;;;18.59;42.71
14882;BME280;7533;51.278;12.588;2023-03-15T13:09:02;100102.31;;;15.57;41.80
14882;BME280;7533;51.278;12.588;2023-03-15T13:14:29;100110.91;;;16.71;41.84
14882;BME280;7533;51.278;12.588;2023-03-15T13:19:40;100100.66;;;19.13;41.56
14882;BME280;7533;51.278;12.588;2023-03-15T13:24:51;100107.06;;;19.67;42.43
14882;BME280;7533;51.278;12.588;2023-03-15T13:29:58;100102.06;;;20.02;43.33
14882;BME280;7533;51.278;12.588;2023-03-15T13:35:02;100106.69;;;20.27;43.95
14882;BME280;7533;51.278;12.588;2023-03-15T13:40:12;100107.13;;;20.48;44.23
14882;BME280;7533;51.278;12.588;2023-03-15T13:45:16;100105.41;;;20.73;44.39
14882;BME280;7533;51.278;12.588;2023-03-15T13:50:20;100102.84;;;21.22;44.51
14882;BME280;7533;51.278;12.588;2023-03-15T13:55:28;100109.75;;;21.39;44.37
14882;BME280;7533;51.278;12.588;2023-03-15T14:00:35;100123.31;;;21.37;43.61
14882;BME280;7533;51.278;12.588;2023-03-15T14:05:44;100121.56;;;21.62;43.36
14882;BME280;7533;51.278;12.588;2023-03-15T14:10:59;100126.63;;;21.67;45.20
14882;BME280;7533;51.278;12.588;2023-03-15T14:16:05;100126.63;;;21.90;45.25
14882;BME280;7533;51.278;12.588;2023-03-15T14:21:14;100130.56;;;22.10;46.50
14882;BME280;7533;51.278;12.588;2023-03-15T14:26:20;100135.63;;;21.78;47.76
14882;BME280;7533;51.278;12.588;2023-03-15T14:31:26;100128.25;;;21.93;48.21
14882;BME280;7533;51.278;12.588;2023-03-15T14:36:40;100130.91;;;22.06;48.88
14882;BME280;7533;51.278;12.588;2023-03-15T14:41:44;100139.47;;;21.87;49.65
14882;BME280;7533;51.278;12.588;2023-03-15T14:46:47;100144.72;;;21.88;49.81
14882;BME280;7533;51.278;12.588;2023-03-15T14:51:56;100145.25;;;22.06;49.94
14882;BME280;7533;51.278;12.588;2023-03-15T14:57:00;100147.09;;;21.93;50.89
14882;BME280;7533;51.278;12.588;2023-03-15T15:02:03;100153.25;;;21.95;50.77
14882;BME280;7533;51.278;12.588;2023-03-15T15:07:09;100154.53;;;22.02;51.18
14882;BME280;7533;51.278;12.588;2023-03-15T15:12:13;100167.66;;;22.07;51.43
14882;BME280;7533;51.278;12.588;2023-03-15T15:17:17;100174.34;;;22.14;51.36
14882;BME280;7533;51.278;12.588;2023-03-15T15:22:21;100176.53;;;22.33;51.31
14882;BME280;7533;51.278;12.588;2023-03-15T15:27:24;100195.41;;;22.33;51.29
14882;BME280;7533;51.278;12.588;2023-03-15T15:32:28;100190.53;;;22.38;51.60
14882;BME280;7533;51.278;12.588;2023-03-15T15:37:35;100189.91;;;22.58;51.65
14882;BME280;7533;51.278;12.588;2023-03-15T15:42:38;100201.38;;;22.49;51.98
14882;BME280;7533;51.278;12.588;2023-03-15T15:47:41;100214.53;;;22.30;52.56
14882;BME280;7533;51.278;12.588;2023-03-15T15:52:48;100231.69;;;22.53;52.14
14882;BME280;7533;51.278;12.588;2023-03-15T15:57:52;100228.19;;;22.63;52.13
14882;BME280;7533;51.278;12.588;2023-03-15T16:02:56;100239.88;;;22.75;52.75
14882;BME280;7533;51.278;12.588;2023-03-15T16:08:03;100250.69;;;22.75;52.62
14882;BME280;7533;51.278;12.588;2023-03-15T16:13:09;100247.41;;;22.09;39.96
14882;BME280;7533;51.278;12.588;2023-03-15T16:18:13;100256.22;;;22.61;47.36
14882;BME280;7533;51.278;12.588;2023-03-15T16:23:20;100266.94;;;22.62;49.85
14882;BME280;7533;51.278;12.588;2023-03-15T16:28:24;100277.47;;;22.65;50.19
14882;BME280;7533;51.278;12.588;2023-03-15T16:33:27;100283.72;;;22.66;50.17
14882;BME280;7533;51.278;12.588;2023-03-15T16:38:32;100293.59;;;22.54;50.89
14882;BME280;7533;51.278;12.588;2023-03-15T16:43:34;100288.50;;;22.62;50.97
14882;BME280;7533;51.278;12.588;2023-03-15T16:48:37;100292.59;;;22.68;51.47
14882;BME280;7533;51.278;12.588;2023-03-15T16:53:41;100304.25;;;22.68;51.91
14882;BME280;7533;51.278;12.588;2023-03-15T16:58:49;100309.97;;;22.64;53.22
14882;BME280;7533;51.278;12.588;2023-03-15T17:03:53;100318.06;;;22.64;53.76
14882;BME280;7533;51.278;12.588;2023-03-15T17:08:59;100331.38;;;22.54;53.95
14882;BME280;7533;51.278;12.588;2023-03-15T17:14:03;100337.94;;;22.50;54.64
14882;BME280;7533;51.278;12.588;2023-03-15T17:19:09;100350.16;;;22.43;55.02
14882;BME280;7533;51.278;12.588;2023-03-15T17:24:14;100359.69;;;22.36;55.44
14882;BME280;7533;51.278;12.588;2023-03-15T17:29:17;100370.03;;;22.29;55.51
14882;BME280;7533;51.278;12.588;2023-03-15T17:34:20;100383.72;;;22.26;55.44
14882;BME280;7533;51.278;12.588;2023-03-15T17:39:24;100390.22;;;22.24;55.50
14882;BME280;7533;51.278;12.588;2023-03-15T17:44:28;100393.00;;;22.22;55.60
14882;BME280;7533;51.278;12.588;2023-03-15T17:49:31;100412.84;;;22.21;55.66
14882;BME280;7533;51.278;12.588;2023-03-15T17:54:35;100407.56;;;22.20;55.85
14882;BME280;7533;51.278;12.588;2023-03-15T17:59:38;100425.47;;;22.21;55.84
14882;BME280;7533;51.278;12.588;2023-03-15T18:04:41;100426.44;;;22.20;55.98
14882;BME280;7533;51.278;12.588;2023-03-15T18:09:45;100424.72;;;22.18;56.10
14882;BME280;7533;51.278;12.588;2023-03-15T18:14:49;100426.13;;;22.11;56.26
14882;BME280;7533;51.278;12.588;2023-03-15T18:19:52;100429.69;;;22.12;56.05
14882;BME280;7533;51.278;12.588;2023-03-15T18:24:56;100434.22;;;22.11;55.57
14882;BME280;7533;51.278;12.588;2023-03-15T18:29:59;100443.34;;;22.09;55.41
14882;BME280;7533;51.278;12.588;2023-03-15T18:35:02;100445.09;;;22.10;55.49
14882;BME280;7533;51.278;12.588;2023-03-15T18:40:08;100451.34;;;22.10;55.40
14882;BME280;7533;51.278;12.588;2023-03-15T18:45:16;100451.41;;;22.09;55.26
14882;BME280;7533;51.278;12.588;2023-03-15T18:50:19;100467.59;;;22.09;54.97
14882;BME280;7533;51.278;12.588;2023-03-15T18:55:24;100464.03;;;22.08;55.06
14882;BME280;7533;51.278;12.588;2023-03-15T19:00:29;100462.44;;;22.06;54.98
14882;BME280;7533;51.278;12.588;2023-03-15T19:05:35;100463.28;;;22.06;54.61
14882;BME280;7533;51.278;12.588;2023-03-15T19:10:39;100464.16;;;22.07;54.67
14882;BME280;7533;51.278;12.588;2023-03-15T19:15:44;100476.66;;;22.08;54.87
14882;BME280;7533;51.278;12.588;2023-03-15T19:20:50;100475.59;;;22.10;54.75
14882;BME280;7533;51.278;12.588;2023-03-15T19:25:55;100472.13;;;22.08;54.61
14882;BME280;7533;51.278;12.588;2023-03-15T19:30:58;100479.34;;;22.08;54.68
14882;BME280;7533;51.278;12.588;2023-03-15T19:36:01;100485.06;;;22.03;55.35
14882;BME280;7533;51.278;12.588;2023-03-15T19:41:07;100489.28;;;22.07;55.57
14882;BME280;7533;51.278;12.588;2023-03-15T19:46:13;100495.16;;;22.00;55.81
14882;BME280;7533;51.278;12.588;2023-03-15T19:51:17;100497.56;;;22.04;55.79
14882;BME280;7533;51.278;12.588;2023-03-15T19:56:22;100509.41;;;22.02;55.97
14882;BME280;7533;51.278;12.588;2023-03-15T20:01:25;100507.16;;;21.96;56.15
14882;BME280;7533;51.278;12.588;2023-03-15T20:06:28;100514.03;;;22.00;56.24
14882;BME280;7533;51.278;12.588;2023-03-15T20:11:32;100516.09;;;21.96;56.41
14882;BME280;7533;51.278;12.588;2023-03-15T20:16:35;100527.63;;;21.98;56.44
14882;BME280;7533;51.278;12.588;2023-03-15T20:21:38;100541.53;;;22.05;56.36
14882;BME280;7533;51.278;12.588;2023-03-15T20:26:42;100538.22;;;22.01;56.47
14882;BME280;7533;51.278;12.588;2023-03-15T20:31:45;100548.22;;;21.99;56.42
14882;BME280;7533;51.278;12.588;2023-03-15T20:36:48;100550.72;;;22.02;56.37
14882;BME280;7533;51.278;12.588;2023-03-15T20:41:54;100548.03;;;22.02;56.62
14882;BME280;7533;51.278;12.588;2023-03-15T20:46:57;100550.72;;;22.02;56.67
14882;BME280;7533;51.278;12.588;2023-03-15T20:52:00;100552.25;;;22.06;56.46
14882;BME280;7533;51.278;12.588;2023-03-15T20:57:05;100558.56;;;22.05;56.51
14882;BME280;7533;51.278;12.588;2023-03-15T21:02:09;100569.09;;;22.10;56.54
14882;BME280;7533;51.278;12.588;2023-03-15T21:07:12;100568.78;;;22.14;56.48
14882;BME280;7533;51.278;12.588;2023-03-15T21:12:16;100567.06;;;22.13;56.29
14882;BME280;7533;51.278;12.588;2023-03-15T21:22:23;100568.25;;;22.22;56.33
14882;BME280;7533;51.278;12.588;2023-03-15T21:27:27;100576.34;;;22.22;56.24
14882;BME280;7533;51.278;12.588;2023-03-15T21:32:30;100581.59;;;22.11;56.58
14882;BME280;7533;51.278;12.588;2023-03-15T21:37:35;100591.31;;;22.13;56.55
14882;BME280;7533;51.278;12.588;2023-03-15T21:42:39;100601.81;;;22.18;56.42
14882;BME280;7533;51.278;12.588;2023-03-15T21:47:43;100607.28;;;22.16;56.65
14882;BME280;7533;51.278;12.588;2023-03-15T21:52:47;100609.66;;;22.21;55.38
14882;BME280;7533;51.278;12.588;2023-03-15T21:57:52;100610.38;;;22.10;56.62
14882;BME280;7533;51.278;12.588;2023-03-15T22:02:55;100616.94;;;22.06;57.01
14882;BME280;7533;51.278;12.588;2023-03-15T22:07:57;100628.13;;;22.00;57.38
14882;BME280;7533;51.278;12.588;2023-03-15T22:13:02;100628.47;;;22.08;57.20
14882;BME280;7533;51.278;12.588;2023-03-15T22:18:04;100625.22;;;22.03;57.36
14882;BME280;7533;51.278;12.588;2023-03-15T22:23:07;100630.13;;;22.11;57.41
14882;BME280;7533;51.278;12.588;2023-03-15T22:28:12;100632.13;;;22.07;57.52
14882;BME280;7533;51.278;12.588;2023-03-15T22:33:15;100629.56;;;22.06;57.56
14882;BME280;7533;51.278;12.588;2023-03-15T22:38:19;100631.88;;;21.98;57.60
14882;BME280;7533;51.278;12.588;2023-03-15T22:43:24;100630.72;;;22.02;57.88
14882;BME280;7533;51.278;12.588;2023-03-15T22:48:27;100625.22;;;22.03;58.01
14882;BME280;7533;51.278;12.588;2023-03-15T22:53:31;100636.84;;;22.04;57.93
14882;BME280;7533;51.278;12.588;2023-03-15T22:58:35;100631.69;;;22.01;58.08
14882;BME280;7533;51.278;12.588;2023-03-15T23:03:39;100636.28;;;21.99;58.10
14882;BME280;7533;51.278;12.588;2023-03-15T23:08:42;100639.97;;;21.98;58.25
14882;BME280;7533;51.278;12.588;2023-03-15T23:13:46;100644.38;;;21.99;58.36
14882;BME280;7533;51.278;12.588;2023-03-15T23:18:49;100656.03;;;21.99;58.58
14882;BME280;7533;51.278;12.588;2023-03-15T23:23:52;100647.19;;;21.97;58.53
14882;BME280;7533;51.278;12.588;2023-03-15T23:28:56;100657.84;;;21.99;58.80
14882;BME280;7533;51.278;12.588;2023-03-15T23:33:59;100659.91;;;21.95;58.88
14882;BME280;7533;51.278;12.588;2023-03-15T23:39:02;100669.16;;;21.91;58.97
14882;BME280;7533;51.278;12.588;2023-03-15T23:44:07;100674.72;;;21.88;59.09
14882;BME280;7533;51.278;12.588;2023-03-15T23:49:11;100674.06;;;21.84;59.30
14882;BME280;7533;51.278;12.588;2023-03-15T23:54:14;100684.19;;;21.81;59.38
14882;BME280;7533;51.278;12.588;2023-03-15T23:59:18;100687.09;;;21.78;59.59
